createdAt,value
2022-10-26T00:07:13.929Z,94.79
2022-10-26T00:17:15.252Z,94.66
2022-10-26T00:27:16.587Z,94.54
2022-10-26T00:37:18.036Z,94.97
2022-10-26T00:47:43.095Z,95.38
2022-10-26T00:57:44.523Z,95.42
2022-10-26T01:07:47.865Z,93.95
2022-10-26T01:18:11.346Z,95.83
2022-10-26T01:28:57.626Z,96.86
2022-10-26T01:39:09.902Z,97.27
2022-10-26T01:49:13.588Z,95.41
2022-10-26T01:59:33.638Z,97.13
2022-10-26T02:09:46.081Z,95.20
2022-10-26T02:19:54.755Z,97.09
2022-10-26T02:29:58.374Z,96.08
2022-10-26T02:40:04.263Z,95.59
2022-10-26T02:50:06.124Z,95.24
2022-10-26T03:00:16.967Z,94.86
2022-10-26T03:10:18.770Z,94.78
2022-10-26T03:20:20.103Z,95.90
2022-10-26T03:30:21.466Z,95.28
2022-10-26T03:40:22.825Z,95.25
2022-10-26T03:50:24.596Z,95.23
2022-10-26T04:00:26.197Z,95.09
2022-10-26T04:10:27.948Z,95.50
2022-10-26T04:20:30.853Z,95.72
2022-10-26T04:30:33.181Z,96.14
2022-10-26T04:40:35.178Z,96.72
2022-10-26T04:50:37.306Z,96.30
2022-10-26T05:00:38.656Z,96.22
2022-10-26T05:10:40.081Z,96.72
2022-10-26T05:20:41.441Z,96.42
2022-10-26T05:30:44.924Z,96.27
2022-10-26T05:40:50.587Z,96.56
2022-10-26T05:50:51.977Z,98.54
2022-10-26T06:01:21.127Z,97.30
2022-10-26T06:11:22.793Z,97.30
2022-10-26T06:21:48.984Z,96.69
2022-10-26T06:31:50.481Z,96.96
2022-10-26T06:41:52.209Z,96.28
2022-10-26T06:51:57.369Z,96.53
2022-10-26T07:02:01.666Z,95.71
2022-10-26T07:12:05.871Z,96.44
2022-10-26T07:22:07.437Z,95.82
2022-10-26T07:32:08.779Z,95.00
2022-10-26T07:42:10.167Z,93.79
2022-10-26T07:52:11.529Z,93.55
2022-10-26T08:02:12.958Z,93.63
2022-10-26T08:12:16.479Z,92.45
2022-10-26T08:22:17.892Z,92.40
2022-10-26T08:32:19.261Z,92.10
2022-10-26T08:42:48.446Z,91.56
2022-10-26T08:52:51.804Z,90.53
2022-10-26T09:02:53.988Z,90.35
2022-10-26T09:13:23.752Z,90.34
2022-10-26T09:23:43.544Z,89.54
2022-10-26T09:33:44.960Z,88.71
2022-10-26T09:44:04.823Z,89.61
2022-10-26T09:54:17.114Z,87.75
2022-10-26T10:04:25.974Z,89.48
2022-10-26T10:14:57.532Z,88.42
2022-10-26T10:25:01.341Z,87.86
2022-10-26T10:35:03.321Z,88.42
2022-10-26T10:45:06.826Z,89.08
2022-10-26T10:55:15.642Z,89.68
2022-10-26T11:05:35.765Z,89.18
2022-10-26T11:15:41.112Z,89.88
2022-10-26T11:25:49.927Z,89.62
2022-10-26T11:35:56.504Z,89.47
2022-10-26T11:46:09.254Z,89.40
2022-10-26T11:56:16.793Z,90.24
2022-10-26T12:06:22.576Z,89.64
2022-10-26T12:16:49.136Z,90.76
2022-10-26T12:26:51.323Z,89.22
2022-10-26T12:36:55.743Z,89.72
2022-10-26T12:46:57.069Z,87.90
2022-10-26T12:57:05.751Z,88.24
2022-10-26T13:07:22.465Z,89.32
2022-10-26T13:17:29.630Z,89.39
2022-10-26T13:27:33.979Z,89.48
2022-10-26T13:37:36.276Z,88.02
2022-10-26T13:47:55.250Z,87.68
2022-10-26T13:58:14.276Z,88.99
2022-10-26T14:08:18.313Z,88.69
2022-10-26T14:18:25.488Z,88.49
2022-10-26T14:28:30.436Z,88.65
2022-10-26T14:38:41.767Z,87.75
2022-10-26T14:48:57.522Z,85.57
2022-10-26T14:58:59.246Z,87.62
2022-10-26T15:09:01.847Z,88.03
2022-10-26T15:19:11.762Z,88.32
2022-10-26T15:29:45.242Z,88.70
2022-10-26T15:39:46.592Z,88.54
2022-10-26T15:49:48.001Z,87.31
2022-10-26T15:59:49.332Z,86.71
2022-10-26T16:09:51.405Z,88.11
2022-10-26T16:19:52.746Z,87.78
2022-10-26T16:29:54.122Z,87.64
2022-10-26T16:39:55.518Z,87.82
2022-10-26T16:49:56.890Z,88.24
2022-10-26T16:59:58.381Z,88.58
2022-10-26T17:09:59.732Z,88.52
2022-10-26T17:20:01.115Z,88.48
2022-10-26T17:30:02.669Z,89.32
2022-10-26T17:40:04.830Z,89.62
2022-10-26T17:50:06.658Z,88.82
2022-10-26T18:00:08.770Z,89.68
2022-10-26T18:10:26.121Z,89.15
2022-10-26T18:20:31.503Z,89.99
2022-10-26T18:30:33.809Z,89.72
2022-10-26T18:40:35.120Z,89.91
2022-10-26T18:50:36.459Z,90.47
2022-10-26T19:00:38.773Z,90.37
2022-10-26T19:10:40.474Z,90.04
2022-10-26T19:20:45.072Z,90.43
2022-10-26T19:30:47.859Z,90.54
2022-10-26T19:40:59.844Z,90.89
2022-10-26T19:51:01.190Z,91.38
2022-10-26T20:01:03.460Z,90.82
2022-10-26T20:11:08.996Z,91.74
2022-10-26T20:21:14.013Z,91.41
2022-10-26T20:31:15.711Z,92.26
2022-10-26T20:41:17.930Z,92.06
2022-10-26T20:51:26.325Z,93.29
2022-10-26T21:01:33.055Z,93.18
2022-10-26T21:11:34.812Z,92.13
2022-10-26T21:21:36.144Z,92.31
2022-10-26T21:31:37.835Z,92.45
2022-10-26T21:41:39.204Z,93.40
2022-10-26T21:51:43.205Z,93.33
2022-10-26T22:01:44.718Z,93.88
2022-10-26T22:11:46.136Z,93.60
2022-10-26T22:21:47.517Z,93.50
2022-10-26T22:31:50.587Z,93.66
2022-10-26T22:41:51.914Z,93.53
2022-10-26T22:51:53.282Z,93.17
2022-10-26T23:01:54.782Z,93.21
2022-10-26T23:11:56.202Z,93.29
2022-10-26T23:21:57.538Z,94.43
2022-10-26T23:31:58.858Z,93.31
2022-10-26T23:42:00.191Z,94.03
2022-10-26T23:52:01.532Z,94.28
